Terminal Aerodrome Forecast
Issued by NWS Sterling, VA

Home | Current Version | Previous Version | Text Only | Print | Product List | Glossary On
Versions: 1 2 3 4 5 6 7 8 9 10 11 12 13
057
FTUS41 KLWX 302341
TAFCHO
TAF
KCHO 302341Z 0100/0124 19009KT P6SM FEW060 FEW250
     FM011100 19011G18KT P6SM BKN015 BKN025
     FM011300 19012KT P6SM BKN020 OVC025
     FM011600 19013G20KT P6SM BKN015 OVC025
     FM011800 19014G21KT P6SM -SHRA VCTS BKN015CB OVC030
     FM012100 19016G24KT 4SM -SHRA VCTS OVC030CB=

USA.gov is the U.S. government's official web portal to all federal, state and local government web resources and services.